TN70 weather

Public forecast

Using degrees Fahrenheit for public forecast. Weather courtesy of forecast.io.

Closest aviation weather report (METAR) to Burkeen Field

Closest report is Olive Branch Airport, 5.0 nm (9.3 km) SW. Retrieved 2020/08/09 16:50 UTC (26 minutes ago):

KOLV 091650Z 21007KT 10SM FEW050 SCT200 34/21 A3011

Closest aviation forecast (TAF) to Burkeen Field

Closest forecast is Memphis International Airport, 13.5 nm (25.0 km) W. Retrieved 2020/08/09 12:24 UTC (5 hours ago):

TAF KMEM 091123Z 0912/1018 VRB03KT P6SM FEW120 FM091500 22007KT P6SM BKN100 FM100300 19005KT P6SM SCT250